Time;durP1;ratioP1;P1;durP2;ratioP2;P2;SDS_P1;SDS_P2;PMS_P1;PMS_P2;Temp;Humidity;BMP_temperature;BMP_pressure;BME280_temperature;BME280_humidity;BME280_pressure;Samples;Min_cycle;Max_cycle;Signal;HPM_P1;HPM_P2
2022/05/07 00:01:11;;;;;;;10.00;9.70;;;12.40;99.90;;;;;;5061479;28;20223;-82
2022/05/07 00:03:39;;;;;;;10.10;9.80;;;12.40;99.90;;;;;;5062226;28;20262;-82
2022/05/07 00:06:10;;;;;;;10.50;10.20;;;12.30;99.90;;;;;;5060401;28;20243;-82
2022/05/07 00:08:40;;;;;;;10.33;10.03;;;12.30;99.90;;;;;;5062194;28;20419;-82
2022/05/07 00:11:08;;;;;;;10.30;10.00;;;12.20;99.90;;;;;;5061793;28;20241;-82
2022/05/07 00:19:11;;;;;;;10.20;9.90;;;12.00;99.90;;;;;;5072219;28;20202;-82
2022/05/07 00:21:49;;;;;;;10.50;10.20;;;12.00;99.90;;;;;;5064137;28;20321;-82
2022/05/07 00:24:17;;;;;;;10.40;10.10;;;11.90;99.90;;;;;;5062071;28;20235;-82
2022/05/07 00:26:47;;;;;;;10.40;10.10;;;11.90;99.90;;;;;;5061297;28;20235;-82
2022/05/07 00:29:26;;;;;;;10.50;10.20;;;11.80;99.90;;;;;;5061204;28;20266;-82
2022/05/07 00:31:56;;;;;;;10.60;10.30;;;11.80;99.90;;;;;;5061034;28;20234;-82
2022/05/07 00:34:27;;;;;;;10.80;10.50;;;11.70;99.90;;;;;;5060835;28;20227;-82
2022/05/07 00:37:02;;;;;;;10.60;10.30;;;11.70;99.90;;;;;;5060746;28;20227;-82
2022/05/07 00:39:32;;;;;;;10.53;10.23;;;11.60;99.90;;;;;;5061156;28;20237;-82
2022/05/07 00:42:10;;;;;;;10.40;10.10;;;11.60;99.90;;;;;;5060889;28;20242;-83
2022/05/07 00:44:39;;;;;;;10.27;9.97;;;11.50;99.90;;;;;;5061294;28;20238;-82
2022/05/07 00:47:27;;;;;;;10.57;10.27;;;11.50;99.90;;;;;;5060984;28;20233;-82
2022/05/07 00:51:33;;;;;;;10.73;10.43;;;11.50;99.90;;;;;;5061571;28;20231;-82
2022/05/07 00:52:47;;;;;;;10.87;10.57;;;11.40;99.90;;;;;;5060716;28;20238;-82
2022/05/07 00:55:15;;;;;;;10.60;10.30;;;11.40;99.90;;;;;;5061079;28;20347;-82
2022/05/07 00:57:44;;;;;;;10.80;10.50;;;11.30;99.90;;;;;;5061359;28;20227;-82
2022/05/07 01:00:12;;;;;;;10.63;10.33;;;11.30;99.90;;;;;;5061005;28;20234;-82
2022/05/07 01:02:41;;;;;;;10.70;10.40;;;11.20;99.90;;;;;;5061182;28;20304;-83
2022/05/07 01:08:27;;;;;;;11.00;10.70;;;11.20;99.90;;;;;;5060800;28;20245;-82
2022/05/07 01:13:49;;;;;;;11.00;10.70;;;11.00;99.90;;;;;;5061682;28;20230;-82
2022/05/07 01:16:20;;;;;;;10.93;10.63;;;10.90;99.90;;;;;;5072695;28;20230;-82
2022/05/07 01:18:48;;;;;;;11.43;11.03;;;10.80;99.90;;;;;;5078683;28;20218;-82
2022/05/07 01:21:21;;;;;;;10.93;10.63;;;10.80;99.90;;;;;;5066009;28;20317;-82
2022/05/07 01:23:49;;;;;;;11.50;11.10;;;10.70;99.90;;;;;;5064852;28;20238;-82
2022/05/07 01:26:20;;;;;;;11.27;10.90;;;10.70;99.90;;;;;;5067623;28;20235;-82
2022/05/07 01:28:48;;;;;;;11.40;11.00;;;10.60;99.90;;;;;;5075911;28;20298;-81
2022/05/07 01:31:16;;;;;;;11.20;10.90;;;10.60;99.90;;;;;;5082445;28;20207;-81
2022/05/07 01:33:44;;;;;;;11.17;10.83;;;10.50;99.90;;;;;;5081840;28;20249;-81
2022/05/07 01:38:59;;;;;;;11.73;11.33;;;10.50;99.90;;;;;;5081900;28;20475;-80
2022/05/07 01:41:26;;;;;;;11.47;11.07;;;10.40;99.90;;;;;;5074888;28;20254;-81
2022/05/07 01:43:54;;;;;;;11.67;11.27;;;10.30;99.90;;;;;;5065000;28;20238;-82
2022/05/07 01:49:09;;;;;;;11.50;11.10;;;10.30;99.90;;;;;;5063697;28;20218;-82
2022/05/07 01:51:38;;;;;;;11.40;11.00;;;10.20;99.90;;;;;;5062847;28;20289;-82
2022/05/07 01:54:18;;;;;;;11.97;11.57;;;10.20;99.90;;;;;;5063392;28;20258;-81
2022/05/07 01:56:46;;;;;;;11.30;10.90;;;10.10;99.90;;;;;;5063157;28;20756;-82
2022/05/07 01:59:18;;;;;;;11.50;11.10;;;10.10;99.90;;;;;;5063153;28;20245;-81
2022/05/07 02:01:46;;;;;;;11.50;11.10;;;10.00;99.90;;;;;;5063522;28;20223;-82
2022/05/07 02:04:14;;;;;;;11.80;11.40;;;10.00;99.90;;;;;;5063172;28;20246;-82
2022/05/07 02:06:44;;;;;;;11.43;11.03;;;10.00;99.90;;;;;;5062998;28;20222;-82
2022/05/07 02:09:22;;;;;;;11.33;10.93;;;9.90;99.90;;;;;;5062516;28;20239;-83
2022/05/07 02:11:53;;;;;;;11.50;11.10;;;9.90;99.90;;;;;;5062941;28;20277;-82
2022/05/07 02:14:21;;;;;;;11.50;11.10;;;9.80;99.90;;;;;;5063245;28;20238;-81
2022/05/07 02:16:50;;;;;;;11.40;11.00;;;9.80;99.90;;;;;;5063586;28;20254;-82
2022/05/07 02:19:23;;;;;;;11.50;11.10;;;9.80;99.90;;;;;;5063610;28;20235;-82
2022/05/07 02:21:50;;;;;;;11.60;11.20;;;9.70;99.90;;;;;;5063547;28;20231;-82
2022/05/07 02:27:06;;;;;;;11.37;10.97;;;9.60;99.90;;;;;;5063622;28;20218;-81
2022/05/07 02:32:17;;;;;;;11.37;10.97;;;9.10;99.90;;;;;;5060013;28;20227;-82
2022/05/07 02:34:53;;;;;;;11.30;10.93;;;9.10;99.90;;;;;;5062980;28;20227;-82
2022/05/07 02:37:23;;;;;;;11.67;11.27;;;9.10;99.90;;;;;;5069877;28;20234;-82
2022/05/07 02:40:01;;;;;;;11.60;11.20;;;9.20;99.90;;;;;;5072182;28;20374;-81
2022/05/07 02:42:39;;;;;;;11.47;11.07;;;9.20;99.90;;;;;;5062772;28;20234;-82
2022/05/07 02:45:09;;;;;;;11.37;10.97;;;9.20;99.90;;;;;;5063581;28;20242;-82
2022/05/07 02:50:24;;;;;;;11.03;10.73;;;9.30;99.90;;;;;;5064743;28;20231;-82
2022/05/07 02:52:53;;;;;;;11.20;10.83;;;9.30;99.90;;;;;;5064181;28;20223;-82
2022/05/07 02:55:27;;;;;;;11.10;10.80;;;9.30;99.90;;;;;;5063286;28;20234;-81
2022/05/07 02:58:01;;;;;;;11.63;11.23;;;9.30;99.90;;;;;;5063163;28;20273;-81
2022/05/07 03:00:32;;;;;;;11.40;11.00;;;9.10;99.90;;;;;;5062582;28;20239;-82
2022/05/07 03:03:00;;;;;;;11.30;10.90;;;9.00;99.90;;;;;;5062701;28;20227;-81
2022/05/07 03:05:30;;;;;;;11.53;11.13;;;8.80;99.90;;;;;;5062324;28;20325;-81
2022/05/07 03:08:00;;;;;;;11.33;10.93;;;8.70;99.90;;;;;;5063304;28;20322;-82
2022/05/07 03:10:31;;;;;;;11.83;11.43;;;8.70;99.90;;;;;;5062859;28;20286;-82
2022/05/07 03:15:45;;;;;;;11.57;11.17;;;8.80;99.90;;;;;;5061911;28;20231;-82
2022/05/07 03:18:14;;;;;;;11.30;10.90;;;8.90;99.90;;;;;;5062688;28;20226;-81
2022/05/07 03:20:44;;;;;;;11.90;11.50;;;8.90;99.90;;;;;;5062076;28;20245;-82
2022/05/07 03:23:13;;;;;;;11.30;10.90;;;9.00;99.90;;;;;;5064849;28;20253;-81
2022/05/07 03:25:52;;;;;;;11.50;11.10;;;9.00;99.90;;;;;;5074293;28;20234;-81
2022/05/07 03:28:20;;;;;;;11.30;10.90;;;9.00;99.90;;;;;;5074166;28;20231;-81
2022/05/07 03:30:52;;;;;;;11.50;11.10;;;8.90;99.90;;;;;;5064612;28;20235;-82
2022/05/07 03:33:19;;;;;;;11.70;11.30;;;8.90;99.90;;;;;;5063322;28;20230;-82
2022/05/07 03:38:32;;;;;;;11.63;11.23;;;8.90;99.90;;;;;;5062544;28;20223;-82
2022/05/07 03:43:45;;;;;;;11.50;11.10;;;8.80;99.90;;;;;;5061481;28;20230;-83
2022/05/07 03:46:16;;;;;;;11.73;11.33;;;8.60;99.90;;;;;;5062111;28;20227;-81
2022/05/07 03:48:44;;;;;;;11.70;11.30;;;8.60;99.90;;;;;;5062101;28;20222;-82
2022/05/07 03:51:15;;;;;;;11.63;11.23;;;8.60;99.90;;;;;;5062056;28;20234;-82
2022/05/07 03:53:47;;;;;;;11.77;11.37;;;8.60;99.90;;;;;;5062537;28;20275;-82
2022/05/07 03:59:19;;;;;;;11.43;11.03;;;8.60;99.90;;;;;;5062437;28;20231;-82
2022/05/07 04:01:48;;;;;;;11.70;11.30;;;8.60;99.90;;;;;;5063741;28;20253;-81
2022/05/07 04:04:18;;;;;;;11.47;11.07;;;8.60;99.90;;;;;;5063576;28;20234;-82
2022/05/07 04:06:46;;;;;;;11.43;11.03;;;8.70;99.90;;;;;;5062992;28;20238;-82
2022/05/07 04:12:11;;;;;;;11.20;10.83;;;8.70;99.90;;;;;;5063154;28;20242;-81
2022/05/07 04:14:41;;;;;;;11.70;11.30;;;8.70;99.90;;;;;;5063133;28;20242;-82
2022/05/07 04:17:18;;;;;;;11.60;11.20;;;8.70;99.90;;;;;;5064747;28;20242;-82
2022/05/07 04:19:47;;;;;;;11.60;11.20;;;8.70;99.90;;;;;;5078772;28;20222;-81
2022/05/07 04:22:26;;;;;;;11.40;11.00;;;8.70;99.90;;;;;;5077293;28;20341;-82
2022/05/07 04:24:56;;;;;;;11.60;11.20;;;8.70;99.90;;;;;;5063554;28;20215;-81
2022/05/07 04:30:15;;;;;;;11.57;11.17;;;8.70;99.90;;;;;;5061898;28;20229;-82
2022/05/07 04:32:53;;;;;;;11.60;11.20;;;8.80;99.90;;;;;;5061956;28;20241;-81
2022/05/07 04:35:31;;;;;;;11.23;10.90;;;8.80;99.90;;;;;;5061948;28;20238;-82
2022/05/07 04:38:01;;;;;;;11.37;11.00;;;8.80;99.90;;;;;;5060943;28;20246;-82
2022/05/07 04:40:47;;;;;;;11.50;11.10;;;8.80;99.90;;;;;;5060911;28;20227;-81
2022/05/07 04:43:21;;;;;;;11.40;11.00;;;8.80;99.90;;;;;;5102129;22;20241;-84
2022/05/07 04:45:53;;;;;;;11.10;10.80;;;8.80;99.90;;;;;;5101169;28;20233;-83
2022/05/07 04:48:23;;;;;;;11.10;10.80;;;8.80;99.90;;;;;;5102739;28;20240;-83
2022/05/07 04:50:52;;;;;;;11.30;11.00;;;8.80;99.90;;;;;;5101676;28;20225;-84
2022/05/07 04:53:21;;;;;;;11.60;11.20;;;8.80;99.90;;;;;;5100311;28;20240;-82
2022/05/07 04:55:50;;;;;;;11.40;11.00;;;8.80;99.90;;;;;;5100738;28;20241;-84
2022/05/07 04:58:29;;;;;;;11.40;11.00;;;8.80;99.90;;;;;;5102889;28;20233;-84
2022/05/07 05:00:59;;;;;;;11.73;11.33;;;8.80;99.90;;;;;;5101772;28;20240;-82
2022/05/07 05:03:27;;;;;;;11.17;10.87;;;8.90;99.90;;;;;;5102235;28;20253;-83
2022/05/07 05:05:57;;;;;;;11.03;10.73;;;8.90;99.90;;;;;;5100464;28;20237;-83
2022/05/07 05:08:27;;;;;;;11.13;10.83;;;8.90;99.90;;;;;;5101087;28;20229;-83
2022/05/07 05:10:56;;;;;;;11.07;10.77;;;8.90;99.90;;;;;;5100429;28;20237;-83
2022/05/07 05:13:34;;;;;;;11.13;10.83;;;9.00;99.90;;;;;;5099206;28;20243;-84
2022/05/07 05:16:06;;;;;;;11.50;11.10;;;9.00;99.90;;;;;;5099635;28;20217;-84
2022/05/07 05:18:35;;;;;;;11.07;10.77;;;9.00;99.90;;;;;;5099857;28;20248;-84
2022/05/07 05:21:03;;;;;;;10.87;10.57;;;9.00;99.90;;;;;;5099895;28;20226;-84
2022/05/07 05:23:32;;;;;;;11.00;10.70;;;9.10;99.90;;;;;;5100144;28;20282;-84
2022/05/07 05:26:02;;;;;;;11.10;10.80;;;9.10;99.90;;;;;;5103208;28;20236;-83
2022/05/07 05:28:42;;;;;;;11.23;10.93;;;9.20;99.90;;;;;;5101430;28;20233;-82
2022/05/07 05:31:11;;;;;;;11.37;11.07;;;9.20;99.90;;;;;;5103946;28;20229;-83
2022/05/07 05:33:39;;;;;;;10.93;10.63;;;9.30;99.90;;;;;;5110907;28;20324;-84
2022/05/07 05:36:13;;;;;;;10.70;10.40;;;9.40;99.90;;;;;;5104683;28;20236;-83
2022/05/07 05:41:47;;;;;;;10.57;10.27;;;9.70;99.90;;;;;;5104370;28;20213;-84
2022/05/07 05:44:23;;;;;;;10.83;10.53;;;9.90;99.90;;;;;;5101794;28;20241;-84
2022/05/07 05:46:51;;;;;;;10.40;10.10;;;10.10;99.90;;;;;;5083532;28;20291;-83
2022/05/07 05:49:20;;;;;;;10.90;10.60;;;10.30;99.90;;;;;;5101276;28;20434;-81
2022/05/07 05:51:50;;;;;;;10.43;10.13;;;10.50;99.90;;;;;;5100752;28;20233;-81
2022/05/07 05:54:19;;;;;;;10.60;10.30;;;10.70;99.90;;;;;;5101233;28;20294;-82
2022/05/07 05:56:49;;;;;;;10.10;9.80;;;10.90;99.90;;;;;;5101426;28;20230;-81
2022/05/07 05:59:36;;;;;;;10.47;10.17;;;11.10;99.90;;;;;;5102826;28;20260;-81
2022/05/07 06:02:06;;;;;;;10.37;10.07;;;11.30;99.90;;;;;;5102168;28;20222;-80
2022/05/07 06:04:45;;;;;;;9.80;9.50;;;11.50;99.90;;;;;;5104483;28;20678;-83
2022/05/07 06:07:16;;;;;;;10.10;9.80;;;11.40;99.90;;;;;;5106228;28;20268;-85
2022/05/07 06:09:44;;;;;;;9.80;9.50;;;11.40;99.90;;;;;;5105138;28;20236;-84
2022/05/07 06:12:14;;;;;;;10.00;9.70;;;11.60;99.90;;;;;;5121745;28;20233;-82
2022/05/07 06:14:44;;;;;;;9.80;9.50;;;11.60;99.90;;;;;;5121741;28;20217;-81
2022/05/07 06:17:13;;;;;;;10.10;9.80;;;11.70;99.90;;;;;;5104034;28;20229;-82
2022/05/07 06:28:22;;;;;;;9.90;9.60;;;12.00;99.90;;;;;;5121879;28;20190;-82
2022/05/07 06:31:55;;;;;;;9.97;9.67;;;12.20;99.90;;;;;;5111220;28;20259;-84
2022/05/07 06:34:36;;;;;;;10.50;10.20;;;12.40;99.90;;;;;;5101675;28;20320;-84
2022/05/07 06:40:22;;;;;;;10.13;9.83;;;12.50;99.90;;;;;;5097338;28;20213;-84
2022/05/07 06:46:36;;;;;;;10.10;9.80;;;12.50;99.90;;;;;;5100267;28;20233;-84
2022/05/07 06:49:18;;;;;;;9.90;9.60;;;12.40;99.90;;;;;;5101512;28;20716;-86
2022/05/07 06:52:18;;;;;;;9.80;9.50;;;12.50;99.90;;;;;;5101852;28;20217;-83
2022/05/07 06:54:52;;;;;;;9.60;9.30;;;12.60;99.90;;;;;;5095048;28;20240;-83
2022/05/07 06:57:28;;;;;;;9.83;9.53;;;12.70;99.90;;;;;;5103160;28;20225;-83
2022/05/07 06:59:59;;;;;;;9.93;9.63;;;12.60;99.90;;;;;;5102507;28;20359;-84
2022/05/07 07:02:36;;;;;;;10.40;10.10;;;12.70;99.90;;;;;;5101079;28;20763;-86
2022/05/07 07:05:05;;;;;;;10.20;9.90;;;13.00;99.90;;;;;;5102324;28;20223;-84
2022/05/07 07:07:37;;;;;;;10.03;9.73;;;13.10;99.90;;;;;;5103927;28;20256;-83
2022/05/07 07:10:06;;;;;;;10.50;10.20;;;13.40;99.90;;;;;;5103239;28;20221;-83
2022/05/07 07:12:42;;;;;;;10.33;10.03;;;13.60;99.90;;;;;;5101230;28;20237;-82
2022/05/07 07:15:12;;;;;;;10.40;10.10;;;13.80;99.90;;;;;;5101400;28;20221;-81
2022/05/07 07:17:41;;;;;;;10.50;10.20;;;13.90;99.90;;;;;;5101154;28;20257;-81
2022/05/07 07:20:12;;;;;;;10.30;10.00;;;14.10;99.90;;;;;;5101233;28;20217;-81
2022/05/07 07:22:44;;;;;;;10.20;9.90;;;14.20;99.90;;;;;;5100479;28;20232;-81
2022/05/07 07:25:27;;;;;;;10.43;10.13;;;14.20;99.90;;;;;;5101192;28;20237;-83
2022/05/07 07:28:08;;;;;;;10.60;10.30;;;14.30;99.90;;;;;;5100840;28;20256;-87
2022/05/07 07:30:37;;;;;;;10.57;10.27;;;14.60;99.90;;;;;;5098963;28;20251;-82
2022/05/07 07:33:34;;;;;;;10.45;10.15;;;14.80;99.90;;;;;;5101855;28;20229;-82
2022/05/07 07:36:22;;;;;;;10.90;10.60;;;15.00;99.90;;;;;;5099255;28;20339;-84
2022/05/07 07:41:45;;;;;;;10.40;10.10;;;15.30;99.90;;;;;;5099977;28;20217;-85
2022/05/07 07:44:13;;;;;;;10.30;10.00;;;15.50;99.90;;;;;;5110227;22;20229;-82
2022/05/07 07:49:30;;;;;;;10.30;10.00;;;16.00;99.90;;;;;;5120782;28;20205;-81
2022/05/07 07:52:00;;;;;;;10.10;9.80;;;16.10;99.90;;;;;;5113775;28;20229;-85
2022/05/07 07:54:32;;;;;;;10.10;9.80;;;16.40;99.90;;;;;;5080550;28;20284;-82
2022/05/07 07:59:47;;;;;;;10.23;9.93;;;16.70;99.90;;;;;;5079006;28;20972;-81
2022/05/07 08:02:15;;;;;;;10.10;9.80;;;16.90;99.90;;;;;;5079077;28;20245;-82
2022/05/07 08:04:45;;;;;;;10.10;9.80;;;17.10;99.90;;;;;;5079993;28;20237;-82
2022/05/07 08:13:05;;;;;;;9.88;9.57;;;16.90;99.90;;;;;;5079676;28;20273;-83
2022/05/07 08:15:35;;;;;;;10.00;9.70;;;16.90;99.90;;;;;;5078921;28;20255;-84
2022/05/07 08:18:05;;;;;;;10.07;9.77;;;16.90;99.90;;;;;;5059833;28;20231;-85
2022/05/07 08:20:36;;;;;;;10.00;9.70;;;17.10;99.90;;;;;;5074477;28;20222;-84
2022/05/07 08:23:14;;;;;;;10.10;9.80;;;17.30;99.90;;;;;;5092428;28;20238;-84
2022/05/07 08:25:45;;;;;;;10.23;9.93;;;17.50;99.90;;;;;;5097651;28;20288;-85
2022/05/07 08:28:13;;;;;;;10.30;10.00;;;17.70;99.90;;;;;;5097453;28;21023;-84
2022/05/07 08:30:43;;;;;;;10.30;10.00;;;17.80;99.90;;;;;;5085674;28;20420;-85
2022/05/07 08:33:46;;;;;;;10.30;10.00;;;18.10;99.90;;;;;;5082198;28;20285;-86
2022/05/07 08:36:16;;;;;;;10.65;10.35;;;18.00;99.90;;;;;;5078465;28;20225;-85
2022/05/07 08:38:44;;;;;;;10.57;10.27;;;18.30;99.90;;;;;;5081402;28;20240;-85
2022/05/07 08:41:24;;;;;;;10.18;9.88;;;18.30;99.90;;;;;;5080103;28;20234;-87
2022/05/07 08:43:57;;;;;;;10.60;10.30;;;18.70;99.90;;;;;;5079602;28;20342;-86
2022/05/07 08:46:52;;;;;;;10.50;10.20;;;18.70;99.90;;;;;;5078721;28;20393;-85
2022/05/07 08:52:23;;;;;;;10.40;10.10;;;19.00;99.90;;;;;;5076013;28;20222;-84
2022/05/07 09:00:58;;;;;;;10.15;9.85;;;19.70;99.90;;;;;;5075286;28;20285;-84
2022/05/07 09:13:26;;;;;;;10.48;10.18;;;20.40;99.90;;;;;;5071646;28;20230;-85
2022/05/07 09:15:57;;;;;;;10.40;10.10;;;20.40;99.90;;;;;;5077745;28;20256;-85
2022/05/07 09:18:30;;;;;;;10.70;10.40;;;20.80;99.90;;;;;;5077188;28;20321;-85
2022/05/07 09:24:12;;;;;;;10.73;10.43;;;21.00;99.90;;;;;;5097182;28;20233;-85
2022/05/07 09:26:44;;;;;;;10.77;10.48;;;21.10;99.90;;;;;;5098035;28;20230;-84
2022/05/07 09:29:37;;;;;;;;;;;;;;;;;;;;;
2022/05/07 09:32:18;;;;;;;10.50;10.20;;;20.80;99.90;;;;;;5078242;28;20231;-84
2022/05/07 09:40:27;;;;;;;10.80;10.50;;;20.30;99.90;;;;;;5081457;28;20222;-85
2022/05/07 09:42:58;;;;;;;10.60;10.30;;;20.40;99.90;;;;;;5079905;28;20246;-86
2022/05/07 09:45:35;;;;;;;10.40;10.10;;;20.60;99.90;;;;;;5080927;28;20222;-85
2022/05/07 09:48:05;;;;;;;10.68;10.38;;;20.40;99.90;;;;;;5080916;28;20229;-85
2022/05/07 09:50:45;;;;;;;10.63;10.32;;;20.50;99.90;;;;;;5080935;28;21144;-85
2022/05/07 09:58:47;;;;;;;10.65;10.35;;;20.40;99.90;;;;;;5102717;28;20211;-85
2022/05/07 10:01:51;;;;;;;10.70;10.40;;;20.70;99.90;;;;;;5102363;28;20210;-86
2022/05/07 10:04:57;;;;;;;10.50;10.20;;;20.90;99.90;;;;;;5101746;28;20240;-86
2022/05/07 10:07:45;;;;;;;10.55;10.25;;;21.00;99.90;;;;;;5069905;28;20218;-87
2022/05/07 10:10:30;;;;;;;10.60;10.30;;;21.00;99.90;;;;;;5099387;28;20227;-83
2022/05/07 10:15:47;;;;;;;10.90;10.60;;;21.80;99.90;;;;;;5112912;28;20205;-86
2022/05/07 10:18:25;;;;;;;10.82;10.52;;;22.30;99.90;;;;;;5104212;28;20240;-86
2022/05/07 10:20:55;;;;;;;10.60;10.30;;;22.90;99.90;;;;;;5104372;28;20239;-88
2022/05/07 10:23:32;;;;;;;10.65;10.35;;;23.30;99.90;;;;;;5103643;28;20285;-87
2022/05/07 10:26:26;;;;;;;10.40;10.10;;;23.30;99.90;;;;;;5103696;28;20324;-87
2022/05/07 10:33:05;;;;;;;10.75;10.45;;;23.50;99.90;;;;;;5095238;28;20236;-88
2022/05/07 10:35:58;;;;;;;11.10;10.80;;;23.30;99.90;;;;;;5112877;28;20233;-89
2022/05/07 10:38:37;;;;;;;10.90;10.60;;;22.80;99.90;;;;;;5121954;28;20204;-90
2022/05/07 10:41:07;;;;;;;11.10;10.80;;;22.70;99.90;;;;;;5120816;28;20231;-89
2022/05/07 10:43:36;;;;;;;11.27;10.98;;;22.90;99.90;;;;;;5117657;22;20230;-82
2022/05/07 10:46:06;;;;;;;10.60;10.30;;;23.00;99.90;;;;;;5104169;28;20283;-80
2022/05/07 10:48:47;;;;;;;10.90;10.60;;;22.70;99.90;;;;;;5104320;28;20291;-82
2022/05/07 10:51:21;;;;;;;10.80;10.50;;;22.60;99.90;;;;;;5102795;28;20229;-82
2022/05/07 10:53:51;;;;;;;10.70;10.40;;;22.40;99.90;;;;;;5102899;28;20259;-83
2022/05/07 10:56:21;;;;;;;10.60;10.30;;;22.30;99.90;;;;;;5101952;28;20329;-82
2022/05/07 10:58:51;;;;;;;10.45;10.15;;;22.30;99.90;;;;;;5102453;28;20217;-82
2022/05/07 11:01:20;;;;;;;10.70;10.40;;;22.50;99.90;;;;;;5102453;28;20255;-82
2022/05/07 11:03:51;;;;;;;10.70;10.40;;;22.90;99.90;;;;;;5100735;28;20301;-80
2022/05/07 11:06:20;;;;;;;10.80;10.50;;;23.30;99.90;;;;;;5064270;28;20227;-82
2022/05/07 11:08:49;;;;;;;11.23;10.93;;;23.90;99.90;;;;;;5065660;28;20311;-81
2022/05/07 11:11:17;;;;;;;11.45;11.15;;;24.30;99.90;;;;;;5065976;28;20230;-82
2022/05/07 11:13:50;;;;;;;11.20;10.90;;;24.80;99.90;;;;;;5061311;28;20239;-82
2022/05/07 11:16:23;;;;;;;11.20;10.90;;;25.00;99.90;;;;;;5060695;28;20223;-81
2022/05/07 11:18:54;;;;;;;11.10;10.80;;;24.20;99.90;;;;;;5060936;28;20231;-80
2022/05/07 11:21:25;;;;;;;11.40;11.10;;;23.70;99.90;;;;;;5060978;28;20706;-81
2022/05/07 11:23:57;;;;;;;10.90;10.60;;;23.40;99.90;;;;;;5061800;28;20235;-83
2022/05/07 11:26:26;;;;;;;11.05;10.75;;;22.80;99.90;;;;;;5061218;28;20238;-81
2022/05/07 11:28:55;;;;;;;11.00;10.70;;;22.40;99.90;;;;;;5061173;28;20231;-81
2022/05/07 11:31:31;;;;;;;10.70;10.40;;;22.40;99.90;;;;;;5061260;28;20237;-82
2022/05/07 11:34:04;;;;;;;10.90;10.60;;;22.10;99.90;;;;;;5060752;28;20246;-81
2022/05/07 11:36:33;;;;;;;10.70;10.40;;;22.20;99.90;;;;;;5060758;28;20227;-82
2022/05/07 11:39:07;;;;;;;10.90;10.60;;;22.50;99.90;;;;;;5060439;28;20231;-82
2022/05/07 11:41:35;;;;;;;10.90;10.60;;;22.70;99.90;;;;;;5060961;28;20317;-78
2022/05/07 11:46:53;;;;;;;10.82;10.52;;;22.90;99.90;;;;;;5060891;28;20223;-81
2022/05/07 11:49:33;;;;;;;10.75;10.45;;;22.70;99.90;;;;;;5060692;28;20260;-82
2022/05/07 11:52:29;;;;;;;10.43;10.13;;;22.50;99.90;;;;;;5065141;28;20282;-82
2022/05/07 11:54:58;;;;;;;10.60;10.30;;;22.70;99.90;;;;;;5063516;28;20242;-83
2022/05/07 11:57:30;;;;;;;10.63;10.32;;;22.90;99.90;;;;;;5064409;28;20257;-83
2022/05/07 11:59:58;;;;;;;10.68;10.38;;;23.30;99.90;;;;;;5063948;28;20254;-81
2022/05/07 12:02:26;;;;;;;10.85;10.55;;;23.40;99.90;;;;;;5063054;28;20239;-81
2022/05/07 12:05:00;;;;;;;10.90;10.60;;;23.00;99.90;;;;;;5063117;28;20261;-79
2022/05/07 12:07:40;;;;;;;10.52;10.23;;;23.10;99.90;;;;;;5063535;28;20245;-81
2022/05/07 12:10:09;;;;;;;10.70;10.40;;;23.30;99.90;;;;;;5062037;28;20234;-80
2022/05/07 12:12:37;;;;;;;10.70;10.40;;;23.60;99.90;;;;;;5061683;28;20235;-81
2022/05/07 12:15:09;;;;;;;10.73;10.43;;;24.10;99.90;;;;;;5063894;28;20263;-81
2022/05/07 12:17:52;;;;;;;10.57;10.27;;;24.00;99.90;;;;;;5064396;28;20242;-81
2022/05/07 12:20:22;;;;;;;10.80;10.50;;;24.50;99.90;;;;;;5063421;28;20314;-81
2022/05/07 12:31:10;;;;;;;10.65;10.35;;;26.00;99.90;;;;;;5068730;28;20199;-85
2022/05/07 12:33:40;;;;;;;10.82;10.52;;;25.50;99.90;;;;;;5064077;28;20230;-86
2022/05/07 12:36:09;;;;;;;10.80;10.50;;;25.20;99.90;;;;;;5063591;28;20230;-86
2022/05/07 12:38:41;;;;;;;10.70;10.40;;;25.10;99.90;;;;;;5063028;28;20229;-84
2022/05/07 12:41:08;;;;;;;10.55;10.25;;;25.10;99.90;;;;;;5062492;28;20234;-84
2022/05/07 12:43:37;;;;;;;10.60;10.30;;;25.00;99.90;;;;;;5061413;28;20254;-85
2022/05/07 12:46:06;;;;;;;10.40;10.10;;;25.00;99.90;;;;;;5063283;28;20238;-84
2022/05/07 12:48:38;;;;;;;10.40;10.10;;;24.70;99.90;;;;;;5061349;28;20253;-84
2022/05/07 12:51:06;;;;;;;10.30;10.00;;;24.50;99.90;;;;;;5062074;28;20326;-84
2022/05/07 12:53:37;;;;;;;10.07;9.77;;;24.40;99.90;;;;;;5062684;28;20294;-84
2022/05/07 12:56:07;;;;;;;10.40;10.10;;;24.40;99.90;;;;;;5062394;28;20309;-85
2022/05/07 12:58:35;;;;;;;10.63;10.32;;;24.40;99.90;;;;;;5061241;28;20253;-85
2022/05/07 13:01:04;;;;;;;10.48;10.18;;;24.30;99.90;;;;;;5062920;28;20605;-84
2022/05/07 13:03:33;;;;;;;10.48;10.18;;;24.70;99.90;;;;;;5061022;28;20234;-86
2022/05/07 13:06:03;;;;;;;10.52;10.23;;;25.20;99.90;;;;;;5061674;28;20261;-86
2022/05/07 13:08:34;;;;;;;10.60;10.30;;;25.20;99.90;;;;;;5062724;28;20226;-85
2022/05/07 13:11:02;;;;;;;10.95;10.65;;;25.10;99.90;;;;;;5063478;28;20219;-84
2022/05/07 13:13:43;;;;;;;10.57;10.27;;;24.90;99.90;;;;;;5063404;28;20238;-85
2022/05/07 13:18:55;;;;;;;10.57;10.27;;;24.10;99.90;;;;;;5062612;28;20231;-86
2022/05/07 13:21:24;;;;;;;10.45;10.15;;;24.20;99.90;;;;;;5064765;28;20222;-85
2022/05/07 13:23:56;;;;;;;10.60;10.30;;;24.20;99.90;;;;;;5065376;28;20234;-85
2022/05/07 13:26:24;;;;;;;10.70;10.40;;;23.90;99.90;;;;;;5064056;28;20264;-85
2022/05/07 13:28:57;;;;;;;10.40;10.10;;;23.60;99.90;;;;;;5064627;28;20253;-85
2022/05/07 13:31:25;;;;;;;10.80;10.50;;;23.70;99.90;;;;;;5063940;28;20238;-86
2022/05/07 13:33:53;;;;;;;10.80;10.50;;;24.10;99.90;;;;;;5064785;28;21053;-85
2022/05/07 13:36:23;;;;;;;10.70;10.40;;;24.50;99.90;;;;;;5063657;28;20234;-86
2022/05/07 13:38:54;;;;;;;10.90;10.60;;;24.90;99.90;;;;;;5063779;28;20277;-86
2022/05/07 13:41:22;;;;;;;10.88;10.57;;;24.90;99.90;;;;;;5063206;28;20231;-85
2022/05/07 13:43:53;;;;;;;10.95;10.65;;;25.20;99.90;;;;;;5064436;28;20242;-86
2022/05/07 13:46:21;;;;;;;10.85;10.55;;;25.40;99.90;;;;;;5064410;28;20321;-85
2022/05/07 13:48:51;;;;;;;10.80;10.50;;;25.60;99.90;;;;;;5064896;28;20230;-86
2022/05/07 13:51:20;;;;;;;10.88;10.57;;;26.20;99.90;;;;;;5063489;28;20258;-86
2022/05/07 13:53:49;;;;;;;10.82;10.52;;;26.60;99.90;;;;;;5063192;28;20235;-86
2022/05/07 13:56:18;;;;;;;11.00;10.70;;;26.70;99.90;;;;;;5064136;28;20678;-84
2022/05/07 13:58:48;;;;;;;10.90;10.60;;;26.50;99.90;;;;;;5065156;28;20226;-84
2022/05/07 14:01:20;;;;;;;10.70;10.40;;;26.50;99.90;;;;;;5064327;28;20230;-84
2022/05/07 14:03:48;;;;;;;10.90;10.60;;;26.50;99.90;;;;;;5062968;28;20247;-85
2022/05/07 14:06:19;;;;;;;10.73;10.43;;;26.60;99.90;;;;;;5064363;28;20227;-85
2022/05/07 14:08:47;;;;;;;10.85;10.55;;;27.00;99.90;;;;;;5063586;28;20248;-84
2022/05/07 14:11:16;;;;;;;10.75;10.45;;;27.20;99.90;;;;;;5064425;28;20314;-85
2022/05/07 14:13:45;;;;;;;10.85;10.55;;;27.80;99.90;;;;;;5063977;28;20235;-84
2022/05/07 14:16:14;;;;;;;11.10;10.80;;;27.40;99.90;;;;;;5062856;28;20230;-85
2022/05/07 14:18:53;;;;;;;11.30;11.00;;;27.50;99.90;;;;;;5062328;28;20305;-85
2022/05/07 14:21:23;;;;;;;11.30;11.00;;;27.90;99.90;;;;;;5062638;28;20222;-85
2022/05/07 14:23:51;;;;;;;11.32;11.02;;;28.30;99.90;;;;;;5064534;28;20266;-85
2022/05/07 14:26:21;;;;;;;11.00;10.70;;;28.30;99.90;;;;;;5064038;28;20241;-85
2022/05/07 14:28:51;;;;;;;11.00;10.70;;;28.30;99.90;;;;;;5064321;28;20231;-85
2022/05/07 14:31:20;;;;;;;11.10;10.80;;;28.50;99.90;;;;;;5063382;28;20215;-85
2022/05/07 14:34:00;;;;;;;11.30;11.00;;;28.50;99.90;;;;;;5062435;28;20310;-86
2022/05/07 14:36:29;;;;;;;10.70;10.40;;;27.70;99.90;;;;;;5062830;28;20269;-85
2022/05/07 14:38:58;;;;;;;11.02;10.73;;;27.80;99.90;;;;;;5062823;28;20238;-85
2022/05/07 14:41:26;;;;;;;11.10;10.80;;;27.60;99.90;;;;;;5064227;28;20231;-85
2022/05/07 14:43:56;;;;;;;11.05;10.75;;;27.80;99.90;;;;;;5064845;28;20239;-85
2022/05/07 14:46:25;;;;;;;11.10;10.80;;;28.10;99.90;;;;;;5064268;28;20321;-85
2022/05/07 14:49:05;;;;;;;10.80;10.50;;;28.10;99.90;;;;;;5062586;28;20729;-85
2022/05/07 14:51:33;;;;;;;11.10;10.80;;;28.00;99.90;;;;;;5060850;28;20226;-85
2022/05/07 14:54:03;;;;;;;10.90;10.60;;;28.30;99.90;;;;;;5061011;28;20258;-86
2022/05/07 14:56:32;;;;;;;11.38;11.07;;;28.50;99.90;;;;;;5065929;28;20231;-86
2022/05/07 14:59:01;;;;;;;11.27;10.98;;;28.20;99.90;;;;;;5071406;28;20235;-86
2022/05/07 15:01:31;;;;;;;11.23;10.93;;;28.00;99.90;;;;;;5067137;28;20227;-86
2022/05/07 15:04:08;;;;;;;10.90;10.60;;;28.10;99.90;;;;;;5066409;28;20261;-86
2022/05/07 15:06:40;;;;;;;11.20;10.90;;;28.20;99.90;;;;;;5065771;28;20233;-85
2022/05/07 15:11:55;;;;;;;11.07;10.77;;;28.10;99.90;;;;;;5066532;28;20302;-85